sensor_id;sensor_type;location;lat;lon;timestamp;temperature;humidity
18218;DHT22;9234;49.344;11.120;2023-11-21T00:00:07;8.50;99.90
18218;DHT22;9234;49.344;11.120;2023-11-21T00:02:39;8.50;99.90
18218;DHT22;9234;49.344;11.120;2023-11-21T00:05:10;8.50;99.90
18218;DHT22;9234;49.344;11.120;2023-11-21T00:07:41;8.50;99.90
18218;DHT22;9234;49.344;11.120;2023-11-21T00:10:11;8.50;99.90
18218;DHT22;9234;49.344;11.120;2023-11-21T00:12:41;8.50;99.90
18218;DHT22;9234;49.344;11.120;2023-11-21T00:15:10;8.50;99.90
18218;DHT22;9234;49.344;11.120;2023-11-21T00:17:39;8.60;99.90
18218;DHT22;9234;49.344;11.120;2023-11-21T00:20:09;8.50;99.90
18218;DHT22;9234;49.344;11.120;2023-11-21T00:22:40;8.50;99.90
18218;DHT22;9234;49.344;11.120;2023-11-21T00:25:10;8.50;99.90
18218;DHT22;9234;49.344;11.120;2023-11-21T00:27:38;8.50;99.90
18218;DHT22;9234;49.344;11.120;2023-11-21T00:30:07;8.50;99.90
18218;DHT22;9234;49.344;11.120;2023-11-21T00:32:37;8.50;99.90
18218;DHT22;9234;49.344;11.120;2023-11-21T00:35:06;8.50;99.90
18218;DHT22;9234;49.344;11.120;2023-11-21T00:37:36;8.50;99.90
18218;DHT22;9234;49.344;11.120;2023-11-21T00:40:07;8.50;99.90
18218;DHT22;9234;49.344;11.120;2023-11-21T00:42:36;8.50;99.90
18218;DHT22;9234;49.344;11.120;2023-11-21T00:45:05;8.50;99.90
18218;DHT22;9234;49.344;11.120;2023-11-21T00:47:34;8.50;99.90
18218;DHT22;9234;49.344;11.120;2023-11-21T00:50:04;8.50;99.90
18218;DHT22;9234;49.344;11.120;2023-11-21T00:52:37;8.50;99.90
18218;DHT22;9234;49.344;11.120;2023-11-21T00:55:06;8.50;99.90
18218;DHT22;9234;49.344;11.120;2023-11-21T00:57:35;8.50;99.90
18218;DHT22;9234;49.344;11.120;2023-11-21T01:00:05;8.50;99.90
18218;DHT22;9234;49.344;11.120;2023-11-21T01:02:36;8.50;99.90
18218;DHT22;9234;49.344;11.120;2023-11-21T01:05:05;8.50;99.90
18218;DHT22;9234;49.344;11.120;2023-11-21T01:07:35;8.50;99.90
18218;DHT22;9234;49.344;11.120;2023-11-21T01:10:06;8.50;99.90
18218;DHT22;9234;49.344;11.120;2023-11-21T01:12:36;8.40;99.90
18218;DHT22;9234;49.344;11.120;2023-11-21T01:15:06;8.50;99.90
18218;DHT22;9234;49.344;11.120;2023-11-21T01:17:35;8.40;99.90
18218;DHT22;9234;49.344;11.120;2023-11-21T01:20:04;8.40;99.90
18218;DHT22;9234;49.344;11.120;2023-11-21T01:22:39;8.40;99.90
18218;DHT22;9234;49.344;11.120;2023-11-21T01:25:10;8.40;99.90
18218;DHT22;9234;49.344;11.120;2023-11-21T01:27:38;8.40;99.90
18218;DHT22;9234;49.344;11.120;2023-11-21T01:30:07;8.40;99.90
18218;DHT22;9234;49.344;11.120;2023-11-21T01:32:37;8.40;99.90
18218;DHT22;9234;49.344;11.120;2023-11-21T01:35:06;8.40;99.90
18218;DHT22;9234;49.344;11.120;2023-11-21T01:37:37;8.40;99.90
18218;DHT22;9234;49.344;11.120;2023-11-21T01:40:06;8.40;99.90
18218;DHT22;9234;49.344;11.120;2023-11-21T01:42:40;8.40;99.90
18218;DHT22;9234;49.344;11.120;2023-11-21T01:45:10;8.40;99.90
18218;DHT22;9234;49.344;11.120;2023-11-21T01:47:40;8.40;99.90
18218;DHT22;9234;49.344;11.120;2023-11-21T01:50:14;8.40;99.90
18218;DHT22;9234;49.344;11.120;2023-11-21T01:52:46;8.40;99.90
18218;DHT22;9234;49.344;11.120;2023-11-21T01:55:18;8.40;99.90
18218;DHT22;9234;49.344;11.120;2023-11-21T01:57:55;8.40;99.90
18218;DHT22;9234;49.344;11.120;2023-11-21T02:00:24;8.40;99.90
18218;DHT22;9234;49.344;11.120;2023-11-21T02:02:55;8.40;99.90
18218;DHT22;9234;49.344;11.120;2023-11-21T02:05:23;8.40;99.90
18218;DHT22;9234;49.344;11.120;2023-11-21T02:07:53;8.40;99.90
18218;DHT22;9234;49.344;11.120;2023-11-21T02:10:22;8.50;99.90
18218;DHT22;9234;49.344;11.120;2023-11-21T02:12:51;8.50;99.90
18218;DHT22;9234;49.344;11.120;2023-11-21T02:15:20;8.40;99.90
18218;DHT22;9234;49.344;11.120;2023-11-21T02:17:50;8.50;99.90
18218;DHT22;9234;49.344;11.120;2023-11-21T02:20:21;8.50;99.90
18218;DHT22;9234;49.344;11.120;2023-11-21T02:22:54;8.50;99.90
18218;DHT22;9234;49.344;11.120;2023-11-21T02:25:27;8.50;99.90
18218;DHT22;9234;49.344;11.120;2023-11-21T02:27:58;8.50;99.90
18218;DHT22;9234;49.344;11.120;2023-11-21T02:30:27;8.40;99.90
18218;DHT22;9234;49.344;11.120;2023-11-21T02:32:58;8.50;99.90
18218;DHT22;9234;49.344;11.120;2023-11-21T02:35:27;8.50;99.90
18218;DHT22;9234;49.344;11.120;2023-11-21T02:38:00;8.50;99.90
18218;DHT22;9234;49.344;11.120;2023-11-21T02:40:29;8.50;99.90
18218;DHT22;9234;49.344;11.120;2023-11-21T02:42:58;8.50;99.90
18218;DHT22;9234;49.344;11.120;2023-11-21T02:45:26;8.50;99.90
18218;DHT22;9234;49.344;11.120;2023-11-21T02:47:55;8.50;99.90
18218;DHT22;9234;49.344;11.120;2023-11-21T02:50:26;8.50;99.90
18218;DHT22;9234;49.344;11.120;2023-11-21T02:52:54;8.50;99.90
18218;DHT22;9234;49.344;11.120;2023-11-21T02:55:25;8.50;99.90
18218;DHT22;9234;49.344;11.120;2023-11-21T02:57:54;8.50;99.90
18218;DHT22;9234;49.344;11.120;2023-11-21T03:00:24;8.40;99.90
18218;DHT22;9234;49.344;11.120;2023-11-21T03:02:55;8.50;99.90
18218;DHT22;9234;49.344;11.120;2023-11-21T03:05:25;8.40;99.90
18218;DHT22;9234;49.344;11.120;2023-11-21T03:07:53;8.40;99.90
18218;DHT22;9234;49.344;11.120;2023-11-21T03:10:22;8.40;99.90
18218;DHT22;9234;49.344;11.120;2023-11-21T03:12:51;8.40;99.90
18218;DHT22;9234;49.344;11.120;2023-11-21T03:15:20;8.40;99.90
18218;DHT22;9234;49.344;11.120;2023-11-21T03:17:48;8.40;99.90
18218;DHT22;9234;49.344;11.120;2023-11-21T03:20:17;8.40;99.90
18218;DHT22;9234;49.344;11.120;2023-11-21T03:22:45;8.40;99.90
18218;DHT22;9234;49.344;11.120;2023-11-21T03:25:15;8.40;99.90
18218;DHT22;9234;49.344;11.120;2023-11-21T03:27:44;8.40;99.90
18218;DHT22;9234;49.344;11.120;2023-11-21T03:30:14;8.40;99.90
18218;DHT22;9234;49.344;11.120;2023-11-21T03:32:43;8.40;99.90
18218;DHT22;9234;49.344;11.120;2023-11-21T03:35:11;8.40;99.90
18218;DHT22;9234;49.344;11.120;2023-11-21T03:37:40;8.40;99.90
18218;DHT22;9234;49.344;11.120;2023-11-21T03:40:10;8.40;99.90
18218;DHT22;9234;49.344;11.120;2023-11-21T03:42:40;8.40;99.90
18218;DHT22;9234;49.344;11.120;2023-11-21T03:45:09;8.40;99.90
18218;DHT22;9234;49.344;11.120;2023-11-21T03:47:41;8.40;99.90
18218;DHT22;9234;49.344;11.120;2023-11-21T03:50:10;8.40;99.90
18218;DHT22;9234;49.344;11.120;2023-11-21T03:52:38;8.40;99.90
18218;DHT22;9234;49.344;11.120;2023-11-21T03:55:07;8.40;99.90
18218;DHT22;9234;49.344;11.120;2023-11-21T03:57:42;8.30;99.90
18218;DHT22;9234;49.344;11.120;2023-11-21T04:00:11;8.30;99.90
18218;DHT22;9234;49.344;11.120;2023-11-21T04:02:41;8.30;99.90
18218;DHT22;9234;49.344;11.120;2023-11-21T04:05:09;8.30;99.90
18218;DHT22;9234;49.344;11.120;2023-11-21T04:07:39;8.30;99.90
18218;DHT22;9234;49.344;11.120;2023-11-21T04:10:08;8.30;99.90
18218;DHT22;9234;49.344;11.120;2023-11-21T04:12:39;8.30;99.90
18218;DHT22;9234;49.344;11.120;2023-11-21T04:15:09;8.30;99.90
18218;DHT22;9234;49.344;11.120;2023-11-21T04:17:38;8.30;99.90
18218;DHT22;9234;49.344;11.120;2023-11-21T04:20:09;8.20;99.90
18218;DHT22;9234;49.344;11.120;2023-11-21T04:22:38;8.20;99.90
18218;DHT22;9234;49.344;11.120;2023-11-21T04:25:12;8.20;99.90
18218;DHT22;9234;49.344;11.120;2023-11-21T04:27:45;8.20;99.90
18218;DHT22;9234;49.344;11.120;2023-11-21T04:30:15;8.20;99.90
18218;DHT22;9234;49.344;11.120;2023-11-21T04:32:43;8.20;99.90
18218;DHT22;9234;49.344;11.120;2023-11-21T04:35:13;8.10;99.90
18218;DHT22;9234;49.344;11.120;2023-11-21T04:37:41;8.10;99.90
18218;DHT22;9234;49.344;11.120;2023-11-21T04:40:10;8.10;99.90
18218;DHT22;9234;49.344;11.120;2023-11-21T04:42:39;8.10;99.90
18218;DHT22;9234;49.344;11.120;2023-11-21T04:45:11;8.10;99.90
18218;DHT22;9234;49.344;11.120;2023-11-21T04:47:40;8.10;99.90
18218;DHT22;9234;49.344;11.120;2023-11-21T04:50:09;8.10;99.90
18218;DHT22;9234;49.344;11.120;2023-11-21T04:52:39;8.10;99.90
18218;DHT22;9234;49.344;11.120;2023-11-21T04:55:08;8.10;99.90
18218;DHT22;9234;49.344;11.120;2023-11-21T04:57:38;8.10;99.90
18218;DHT22;9234;49.344;11.120;2023-11-21T05:00:09;8.10;99.90
18218;DHT22;9234;49.344;11.120;2023-11-21T05:02:40;8.10;99.90
18218;DHT22;9234;49.344;11.120;2023-11-21T05:05:09;8.20;99.90
18218;DHT22;9234;49.344;11.120;2023-11-21T05:07:40;8.20;99.90
18218;DHT22;9234;49.344;11.120;2023-11-21T05:10:10;8.20;99.90
18218;DHT22;9234;49.344;11.120;2023-11-21T05:12:41;8.20;99.90
18218;DHT22;9234;49.344;11.120;2023-11-21T05:15:13;8.20;99.90
18218;DHT22;9234;49.344;11.120;2023-11-21T05:17:43;8.20;99.90
18218;DHT22;9234;49.344;11.120;2023-11-21T05:20:13;8.20;99.90
18218;DHT22;9234;49.344;11.120;2023-11-21T05:22:46;8.20;99.90
18218;DHT22;9234;49.344;11.120;2023-11-21T05:25:15;8.20;99.90
18218;DHT22;9234;49.344;11.120;2023-11-21T05:27:45;8.20;99.90
18218;DHT22;9234;49.344;11.120;2023-11-21T05:30:13;8.20;99.90
18218;DHT22;9234;49.344;11.120;2023-11-21T05:32:42;8.20;99.90
18218;DHT22;9234;49.344;11.120;2023-11-21T05:35:10;8.20;99.90
18218;DHT22;9234;49.344;11.120;2023-11-21T05:37:42;8.20;99.90
18218;DHT22;9234;49.344;11.120;2023-11-21T05:40:12;8.20;99.90
18218;DHT22;9234;49.344;11.120;2023-11-21T05:42:41;8.20;99.90
18218;DHT22;9234;49.344;11.120;2023-11-21T05:45:10;8.20;99.90
18218;DHT22;9234;49.344;11.120;2023-11-21T05:47:42;8.20;99.90
18218;DHT22;9234;49.344;11.120;2023-11-21T05:50:13;8.20;99.90
18218;DHT22;9234;49.344;11.120;2023-11-21T05:52:44;8.20;99.90
18218;DHT22;9234;49.344;11.120;2023-11-21T05:55:15;8.20;99.90
18218;DHT22;9234;49.344;11.120;2023-11-21T05:57:44;8.20;99.90
18218;DHT22;9234;49.344;11.120;2023-11-21T06:00:14;8.20;99.90
18218;DHT22;9234;49.344;11.120;2023-11-21T06:02:47;8.20;99.90
18218;DHT22;9234;49.344;11.120;2023-11-21T06:05:18;8.20;99.90
18218;DHT22;9234;49.344;11.120;2023-11-21T06:07:47;8.20;99.90
18218;DHT22;9234;49.344;11.120;2023-11-21T06:10:17;8.20;99.90
18218;DHT22;9234;49.344;11.120;2023-11-21T06:12:47;8.20;99.90
18218;DHT22;9234;49.344;11.120;2023-11-21T06:15:15;8.20;99.90
18218;DHT22;9234;49.344;11.120;2023-11-21T06:17:46;8.30;99.90
18218;DHT22;9234;49.344;11.120;2023-11-21T06:20:19;8.30;99.90
18218;DHT22;9234;49.344;11.120;2023-11-21T06:22:50;8.30;99.90
18218;DHT22;9234;49.344;11.120;2023-11-21T06:25:20;8.20;99.90
18218;DHT22;9234;49.344;11.120;2023-11-21T06:27:49;8.30;99.90
18218;DHT22;9234;49.344;11.120;2023-11-21T06:30:18;8.20;99.90
18218;DHT22;9234;49.344;11.120;2023-11-21T06:32:47;8.20;99.90
18218;DHT22;9234;49.344;11.120;2023-11-21T06:35:17;8.20;99.90
18218;DHT22;9234;49.344;11.120;2023-11-21T06:37:45;8.20;99.90
18218;DHT22;9234;49.344;11.120;2023-11-21T06:40:17;8.20;99.90
18218;DHT22;9234;49.344;11.120;2023-11-21T06:42:48;8.20;99.90
18218;DHT22;9234;49.344;11.120;2023-11-21T06:45:17;8.20;99.90
18218;DHT22;9234;49.344;11.120;2023-11-21T06:47:46;8.20;99.90
18218;DHT22;9234;49.344;11.120;2023-11-21T06:50:15;8.20;99.90
18218;DHT22;9234;49.344;11.120;2023-11-21T06:52:44;8.10;99.90
18218;DHT22;9234;49.344;11.120;2023-11-21T06:55:12;8.20;99.90
18218;DHT22;9234;49.344;11.120;2023-11-21T06:57:40;8.10;99.90
18218;DHT22;9234;49.344;11.120;2023-11-21T07:00:12;8.20;99.90
18218;DHT22;9234;49.344;11.120;2023-11-21T07:02:44;8.20;99.90
18218;DHT22;9234;49.344;11.120;2023-11-21T07:05:12;8.20;99.90
18218;DHT22;9234;49.344;11.120;2023-11-21T07:07:42;8.20;99.90
18218;DHT22;9234;49.344;11.120;2023-11-21T07:10:10;8.20;99.90
18218;DHT22;9234;49.344;11.120;2023-11-21T07:12:39;8.30;99.90
18218;DHT22;9234;49.344;11.120;2023-11-21T07:15:08;8.20;99.90
18218;DHT22;9234;49.344;11.120;2023-11-21T07:17:39;8.30;99.90
18218;DHT22;9234;49.344;11.120;2023-11-21T07:20:09;8.30;99.90
18218;DHT22;9234;49.344;11.120;2023-11-21T07:22:38;8.30;99.90
18218;DHT22;9234;49.344;11.120;2023-11-21T07:25:07;8.40;99.90
18218;DHT22;9234;49.344;11.120;2023-11-21T07:27:36;8.40;99.90
18218;DHT22;9234;49.344;11.120;2023-11-21T07:30:05;8.40;99.90
18218;DHT22;9234;49.344;11.120;2023-11-21T07:32:39;8.50;99.90
18218;DHT22;9234;49.344;11.120;2023-11-21T07:35:14;8.50;99.90
18218;DHT22;9234;49.344;11.120;2023-11-21T07:37:45;8.50;99.90
18218;DHT22;9234;49.344;11.120;2023-11-21T07:40:15;8.50;99.90
18218;DHT22;9234;49.344;11.120;2023-11-21T07:42:44;8.50;99.90
18218;DHT22;9234;49.344;11.120;2023-11-21T07:45:12;8.50;99.90
18218;DHT22;9234;49.344;11.120;2023-11-21T07:47:43;8.50;99.90
18218;DHT22;9234;49.344;11.120;2023-11-21T07:50:13;8.50;99.90
18218;DHT22;9234;49.344;11.120;2023-11-21T07:52:49;8.60;99.90
18218;DHT22;9234;49.344;11.120;2023-11-21T07:55:20;8.60;99.90
18218;DHT22;9234;49.344;11.120;2023-11-21T07:57:48;8.60;99.90
18218;DHT22;9234;49.344;11.120;2023-11-21T08:00:17;8.60;99.90
18218;DHT22;9234;49.344;11.120;2023-11-21T08:02:49;8.70;99.90
18218;DHT22;9234;49.344;11.120;2023-11-21T08:05:22;8.70;99.90
18218;DHT22;9234;49.344;11.120;2023-11-21T08:08:00;8.80;99.90
18218;DHT22;9234;49.344;11.120;2023-11-21T08:10:31;8.80;99.90
18218;DHT22;9234;49.344;11.120;2023-11-21T08:12:59;8.90;99.90
18218;DHT22;9234;49.344;11.120;2023-11-21T08:15:27;8.90;99.90
18218;DHT22;9234;49.344;11.120;2023-11-21T08:18:00;9.00;99.90
18218;DHT22;9234;49.344;11.120;2023-11-21T08:20:29;9.00;99.90
18218;DHT22;9234;49.344;11.120;2023-11-21T08:22:59;9.10;99.90
18218;DHT22;9234;49.344;11.120;2023-11-21T08:25:28;9.10;99.90
18218;DHT22;9234;49.344;11.120;2023-11-21T08:28:00;9.20;99.90
18218;DHT22;9234;49.344;11.120;2023-11-21T08:30:28;9.30;99.90
18218;DHT22;9234;49.344;11.120;2023-11-21T08:32:56;9.40;99.90
18218;DHT22;9234;49.344;11.120;2023-11-21T08:35:26;9.50;99.90
18218;DHT22;9234;49.344;11.120;2023-11-21T08:37:55;9.50;99.90
18218;DHT22;9234;49.344;11.120;2023-11-21T08:40:23;9.60;99.90
18218;DHT22;9234;49.344;11.120;2023-11-21T08:42:52;9.60;99.90
18218;DHT22;9234;49.344;11.120;2023-11-21T08:45:21;9.60;99.90
18218;DHT22;9234;49.344;11.120;2023-11-21T08:47:50;9.60;99.90
18218;DHT22;9234;49.344;11.120;2023-11-21T08:50:18;9.60;99.90
18218;DHT22;9234;49.344;11.120;2023-11-21T08:52:48;9.60;99.90
18218;DHT22;9234;49.344;11.120;2023-11-21T08:55:16;9.60;99.90
18218;DHT22;9234;49.344;11.120;2023-11-21T08:57:46;9.60;99.90
18218;DHT22;9234;49.344;11.120;2023-11-21T09:00:15;9.60;99.90
18218;DHT22;9234;49.344;11.120;2023-11-21T09:02:44;9.70;99.90
18218;DHT22;9234;49.344;11.120;2023-11-21T09:05:14;9.70;99.90
18218;DHT22;9234;49.344;11.120;2023-11-21T09:07:43;9.80;99.90
18218;DHT22;9234;49.344;11.120;2023-11-21T09:10:14;9.90;99.90
18218;DHT22;9234;49.344;11.120;2023-11-21T09:12:42;9.90;99.90
18218;DHT22;9234;49.344;11.120;2023-11-21T09:15:11;9.90;99.90
18218;DHT22;9234;49.344;11.120;2023-11-21T09:17:39;9.90;99.90
18218;DHT22;9234;49.344;11.120;2023-11-21T09:20:08;9.90;99.90
18218;DHT22;9234;49.344;11.120;2023-11-21T09:22:38;9.90;99.90
18218;DHT22;9234;49.344;11.120;2023-11-21T09:25:07;9.90;99.90
18218;DHT22;9234;49.344;11.120;2023-11-21T09:27:38;9.90;99.90
18218;DHT22;9234;49.344;11.120;2023-11-21T09:30:06;9.90;99.90
18218;DHT22;9234;49.344;11.120;2023-11-21T09:32:38;9.90;99.90
18218;DHT22;9234;49.344;11.120;2023-11-21T09:35:10;9.90;99.90
18218;DHT22;9234;49.344;11.120;2023-11-21T09:37:40;10.00;99.90
18218;DHT22;9234;49.344;11.120;2023-11-21T09:40:12;10.00;99.90
18218;DHT22;9234;49.344;11.120;2023-11-21T09:42:50;10.00;99.90
18218;DHT22;9234;49.344;11.120;2023-11-21T09:45:25;10.00;99.90
18218;DHT22;9234;49.344;11.120;2023-11-21T09:47:55;10.10;99.90
18218;DHT22;9234;49.344;11.120;2023-11-21T09:50:28;10.10;99.90
18218;DHT22;9234;49.344;11.120;2023-11-21T09:53:11;10.20;99.90
18218;DHT22;9234;49.344;11.120;2023-11-21T09:55:46;10.20;99.90
18218;DHT22;9234;49.344;11.120;2023-11-21T09:58:19;10.20;99.90
18218;DHT22;9234;49.344;11.120;2023-11-21T10:00:50;10.20;99.90
18218;DHT22;9234;49.344;11.120;2023-11-21T10:03:21;10.20;99.90
18218;DHT22;9234;49.344;11.120;2023-11-21T10:05:50;10.20;99.90
18218;DHT22;9234;49.344;11.120;2023-11-21T10:08:22;10.20;99.90
18218;DHT22;9234;49.344;11.120;2023-11-21T10:11:12;10.30;99.90
18218;DHT22;9234;49.344;11.120;2023-11-21T10:13:45;10.40;99.90
18218;DHT22;9234;49.344;11.120;2023-11-21T10:16:16;10.40;99.90
18218;DHT22;9234;49.344;11.120;2023-11-21T10:18:52;10.50;99.90
18218;DHT22;9234;49.344;11.120;2023-11-21T10:21:37;10.60;99.90
18218;DHT22;9234;49.344;11.120;2023-11-21T10:24:07;10.60;99.90
18218;DHT22;9234;49.344;11.120;2023-11-21T10:26:35;10.60;99.90
18218;DHT22;9234;49.344;11.120;2023-11-21T10:29:20;10.60;99.90
18218;DHT22;9234;49.344;11.120;2023-11-21T10:31:49;10.70;99.90
18218;DHT22;9234;49.344;11.120;2023-11-21T10:34:21;10.70;99.90
18218;DHT22;9234;49.344;11.120;2023-11-21T10:36:49;10.80;99.90
18218;DHT22;9234;49.344;11.120;2023-11-21T10:39:19;10.80;99.90
18218;DHT22;9234;49.344;11.120;2023-11-21T10:41:51;10.80;99.90
18218;DHT22;9234;49.344;11.120;2023-11-21T10:44:23;10.80;99.90
18218;DHT22;9234;49.344;11.120;2023-11-21T10:46:54;10.90;99.90
18218;DHT22;9234;49.344;11.120;2023-11-21T10:49:25;11.10;99.90
18218;DHT22;9234;49.344;11.120;2023-11-21T10:51:54;11.20;99.90
18218;DHT22;9234;49.344;11.120;2023-11-21T10:54:24;11.20;99.90
18218;DHT22;9234;49.344;11.120;2023-11-21T10:56:59;11.20;99.90
18218;DHT22;9234;49.344;11.120;2023-11-21T10:59:31;11.20;99.90
18218;DHT22;9234;49.344;11.120;2023-11-21T11:02:01;11.20;99.90
18218;DHT22;9234;49.344;11.120;2023-11-21T11:04:35;11.10;99.90
18218;DHT22;9234;49.344;11.120;2023-11-21T11:07:08;11.10;99.90
18218;DHT22;9234;49.344;11.120;2023-11-21T11:09:39;11.10;99.90
18218;DHT22;9234;49.344;11.120;2023-11-21T11:12:08;11.20;99.90
18218;DHT22;9234;49.344;11.120;2023-11-21T11:14:40;11.20;99.90
18218;DHT22;9234;49.344;11.120;2023-11-21T11:17:10;11.30;99.90
18218;DHT22;9234;49.344;11.120;2023-11-21T11:19:39;11.40;99.90
18218;DHT22;9234;49.344;11.120;2023-11-21T11:22:19;11.50;99.90
18218;DHT22;9234;49.344;11.120;2023-11-21T11:25:21;11.50;99.90
18218;DHT22;9234;49.344;11.120;2023-11-21T11:28:10;11.50;99.90
18218;DHT22;9234;49.344;11.120;2023-11-21T11:30:51;11.50;99.90
18218;DHT22;9234;49.344;11.120;2023-11-21T11:33:36;11.40;99.90
18218;DHT22;9234;49.344;11.120;2023-11-21T11:36:13;11.40;99.90
18218;DHT22;9234;49.344;11.120;2023-11-21T11:38:48;11.40;99.90
18218;DHT22;9234;49.344;11.120;2023-11-21T11:41:24;11.40;99.90
18218;DHT22;9234;49.344;11.120;2023-11-21T11:43:57;11.40;99.90
18218;DHT22;9234;49.344;11.120;2023-11-21T11:46:41;11.50;99.90
18218;DHT22;9234;49.344;11.120;2023-11-21T11:49:23;11.50;99.90
18218;DHT22;9234;49.344;11.120;2023-11-21T11:55:08;11.40;99.90
18218;DHT22;9234;49.344;11.120;2023-11-21T11:57:38;11.40;99.90
18218;DHT22;9234;49.344;11.120;2023-11-21T12:00:11;11.40;99.90
18218;DHT22;9234;49.344;11.120;2023-11-21T12:02:46;11.40;99.90
18218;DHT22;9234;49.344;11.120;2023-11-21T12:05:16;11.40;99.90
18218;DHT22;9234;49.344;11.120;2023-11-21T12:07:50;11.30;99.90
18218;DHT22;9234;49.344;11.120;2023-11-21T12:10:21;11.30;99.90
18218;DHT22;9234;49.344;11.120;2023-11-21T12:12:54;11.30;99.90
18218;DHT22;9234;49.344;11.120;2023-11-21T12:15:23;11.30;99.90
18218;DHT22;9234;49.344;11.120;2023-11-21T12:17:54;11.30;99.90
18218;DHT22;9234;49.344;11.120;2023-11-21T12:20:23;11.20;99.90
18218;DHT22;9234;49.344;11.120;2023-11-21T12:22:53;11.20;99.90
18218;DHT22;9234;49.344;11.120;2023-11-21T12:25:24;11.20;99.90
18218;DHT22;9234;49.344;11.120;2023-11-21T12:27:56;11.20;99.90
18218;DHT22;9234;49.344;11.120;2023-11-21T12:30:26;11.20;99.90
18218;DHT22;9234;49.344;11.120;2023-11-21T12:33:00;11.10;99.90
18218;DHT22;9234;49.344;11.120;2023-11-21T12:35:30;11.00;99.90
18218;DHT22;9234;49.344;11.120;2023-11-21T12:38:01;11.00;99.90
18218;DHT22;9234;49.344;11.120;2023-11-21T12:40:31;11.00;99.90
18218;DHT22;9234;49.344;11.120;2023-11-21T12:43:01;10.90;99.90
18218;DHT22;9234;49.344;11.120;2023-11-21T12:45:31;10.90;99.90
18218;DHT22;9234;49.344;11.120;2023-11-21T12:48:02;10.90;99.90
18218;DHT22;9234;49.344;11.120;2023-11-21T12:50:35;10.80;99.90
18218;DHT22;9234;49.344;11.120;2023-11-21T12:53:05;10.90;99.90
18218;DHT22;9234;49.344;11.120;2023-11-21T12:55:36;10.90;99.90
18218;DHT22;9234;49.344;11.120;2023-11-21T12:58:06;10.90;99.90
18218;DHT22;9234;49.344;11.120;2023-11-21T13:00:40;10.90;99.90
18218;DHT22;9234;49.344;11.120;2023-11-21T13:03:12;10.80;99.90
18218;DHT22;9234;49.344;11.120;2023-11-21T13:05:46;10.80;99.90
18218;DHT22;9234;49.344;11.120;2023-11-21T13:08:18;10.80;99.90
18218;DHT22;9234;49.344;11.120;2023-11-21T13:10:51;10.70;99.90
18218;DHT22;9234;49.344;11.120;2023-11-21T13:13:23;10.80;99.90
18218;DHT22;9234;49.344;11.120;2023-11-21T13:15:53;10.70;99.90
18218;DHT22;9234;49.344;11.120;2023-11-21T13:18:25;10.70;99.90
18218;DHT22;9234;49.344;11.120;2023-11-21T13:20:54;10.70;99.90
18218;DHT22;9234;49.344;11.120;2023-11-21T13:23:26;10.70;99.90
18218;DHT22;9234;49.344;11.120;2023-11-21T13:25:55;10.70;99.90
18218;DHT22;9234;49.344;11.120;2023-11-21T13:28:33;10.80;99.90
18218;DHT22;9234;49.344;11.120;2023-11-21T13:31:03;10.80;99.90
18218;DHT22;9234;49.344;11.120;2023-11-21T13:33:49;10.80;99.90
18218;DHT22;9234;49.344;11.120;2023-11-21T13:36:23;10.90;99.90
18218;DHT22;9234;49.344;11.120;2023-11-21T13:38:56;11.00;99.90
18218;DHT22;9234;49.344;11.120;2023-11-21T13:41:26;11.00;99.90
18218;DHT22;9234;49.344;11.120;2023-11-21T13:43:58;11.00;99.90
18218;DHT22;9234;49.344;11.120;2023-11-21T13:46:30;11.00;99.90
18218;DHT22;9234;49.344;11.120;2023-11-21T13:49:05;11.00;99.90
18218;DHT22;9234;49.344;11.120;2023-11-21T13:51:37;10.90;99.90
18218;DHT22;9234;49.344;11.120;2023-11-21T13:54:12;10.90;99.90
18218;DHT22;9234;49.344;11.120;2023-11-21T13:56:41;10.80;99.90
18218;DHT22;9234;49.344;11.120;2023-11-21T13:59:12;10.80;99.90
18218;DHT22;9234;49.344;11.120;2023-11-21T14:01:47;10.80;99.90
18218;DHT22;9234;49.344;11.120;2023-11-21T14:04:25;10.80;99.90
18218;DHT22;9234;49.344;11.120;2023-11-21T14:07:17;10.80;99.90
18218;DHT22;9234;49.344;11.120;2023-11-21T14:09:53;10.70;99.90
18218;DHT22;9234;49.344;11.120;2023-11-21T14:12:21;10.80;99.90
18218;DHT22;9234;49.344;11.120;2023-11-21T14:14:50;10.70;99.90
18218;DHT22;9234;49.344;11.120;2023-11-21T14:17:18;10.70;99.90
18218;DHT22;9234;49.344;11.120;2023-11-21T14:19:50;10.80;99.90
18218;DHT22;9234;49.344;11.120;2023-11-21T14:22:22;10.90;99.90
18218;DHT22;9234;49.344;11.120;2023-11-21T14:24:52;11.00;99.90
18218;DHT22;9234;49.344;11.120;2023-11-21T14:27:22;11.10;99.90
18218;DHT22;9234;49.344;11.120;2023-11-21T14:29:51;11.10;99.90
18218;DHT22;9234;49.344;11.120;2023-11-21T14:32:20;11.10;99.90
18218;DHT22;9234;49.344;11.120;2023-11-21T14:34:50;11.10;99.90
18218;DHT22;9234;49.344;11.120;2023-11-21T14:37:18;11.00;99.90
18218;DHT22;9234;49.344;11.120;2023-11-21T14:39:47;11.00;99.90
18218;DHT22;9234;49.344;11.120;2023-11-21T14:42:16;11.00;99.90
18218;DHT22;9234;49.344;11.120;2023-11-21T14:44:52;11.00;99.90
18218;DHT22;9234;49.344;11.120;2023-11-21T14:47:24;11.00;99.90
18218;DHT22;9234;49.344;11.120;2023-11-21T14:49:55;11.00;99.90
18218;DHT22;9234;49.344;11.120;2023-11-21T14:52:26;10.90;99.90
18218;DHT22;9234;49.344;11.120;2023-11-21T14:55:02;10.90;99.90
18218;DHT22;9234;49.344;11.120;2023-11-21T14:57:48;10.90;99.90
18218;DHT22;9234;49.344;11.120;2023-11-21T15:00:17;10.80;99.90
18218;DHT22;9234;49.344;11.120;2023-11-21T15:03:08;10.80;99.90
18218;DHT22;9234;49.344;11.120;2023-11-21T15:05:39;10.80;99.90
18218;DHT22;9234;49.344;11.120;2023-11-21T15:08:07;10.70;99.90
18218;DHT22;9234;49.344;11.120;2023-11-21T15:10:48;10.60;99.90
18218;DHT22;9234;49.344;11.120;2023-11-21T15:13:20;10.60;99.90
18218;DHT22;9234;49.344;11.120;2023-11-21T15:15:51;10.40;99.90
18218;DHT22;9234;49.344;11.120;2023-11-21T15:18:21;10.40;99.90
18218;DHT22;9234;49.344;11.120;2023-11-21T15:20:51;10.30;99.90
18218;DHT22;9234;49.344;11.120;2023-11-21T15:23:22;10.30;99.90
18218;DHT22;9234;49.344;11.120;2023-11-21T15:25:50;10.20;99.90
18218;DHT22;9234;49.344;11.120;2023-11-21T15:28:19;10.10;99.90
18218;DHT22;9234;49.344;11.120;2023-11-21T15:30:48;10.00;99.90
18218;DHT22;9234;49.344;11.120;2023-11-21T15:33:18;9.90;99.90
18218;DHT22;9234;49.344;11.120;2023-11-21T15:35:46;9.80;99.90
18218;DHT22;9234;49.344;11.120;2023-11-21T15:38:16;9.70;99.90
18218;DHT22;9234;49.344;11.120;2023-11-21T15:40:44;9.60;99.90
18218;DHT22;9234;49.344;11.120;2023-11-21T15:43:13;9.50;99.90
18218;DHT22;9234;49.344;11.120;2023-11-21T15:45:41;9.40;99.90
18218;DHT22;9234;49.344;11.120;2023-11-21T15:48:10;9.30;99.90
18218;DHT22;9234;49.344;11.120;2023-11-21T15:50:38;9.30;99.90
18218;DHT22;9234;49.344;11.120;2023-11-21T15:53:06;9.20;99.90
18218;DHT22;9234;49.344;11.120;2023-11-21T15:55:36;9.10;99.90
18218;DHT22;9234;49.344;11.120;2023-11-21T15:58:09;9.10;99.90
18218;DHT22;9234;49.344;11.120;2023-11-21T16:00:38;9.00;99.90
18218;DHT22;9234;49.344;11.120;2023-11-21T16:03:08;8.90;99.90
18218;DHT22;9234;49.344;11.120;2023-11-21T16:05:39;8.90;99.90